Dionea — ISYR — position and weather

sailwx.info

Track history (hours):
 
Tides and Currents Weather Stations Pressure Air Temp Water Temp Dewpoint Dewpoint Depression Visibility Wind Speed Wind Dir Waves Ship Positions

Dionea

Last reported at 2014-Oct-10 02:32 UTC. Time now 2014-Dec-21 23:57 UTC.
Position N 44°24' E 008°56'.
Warning: this ship's position is months out of date.

Length 52 m.

Type: Pleasure craft. MMSI: 247159400.

Date/timePositionNaut miles runAvg speedWind from/ knotsBaromVisibWave heightAir tempDewpointWater temp
2014-Oct-10 02:32N 44°24' E 008°56'5 5.5
2014-Oct-10 01:33N 44°18' E 008°55'10 9.4
2014-Oct-10 00:33N 44°13' E 008°44'10 9.1
2014-Oct-09 23:25N 44°07' E 008°33'58 9.7
2014-Oct-09 17:26N 43°41' E 007°21'3 3.2
2014-Oct-09 16:33N 43°42' E 007°17'0 0.0
2014-Oct-09 15:33N 43°42' E 007°17'0 0.0
2014-Oct-09 14:33N 43°42' E 007°17'0 0.0
2014-Oct-09 13:33N 43°42' E 007°17'0 0.0
2014-Oct-09 12:33N 43°42' E 007°17'0 0.0
2014-Oct-09 11:33N 43°42' E 007°17'0 0.0
2014-Oct-09 10:33N 43°42' E 007°17'0 0.0
2014-Oct-09 08:30N 43°42' E 007°17'0 0.0
2014-Oct-09 07:33N 43°42' E 007°17'0 0.0
2014-Oct-09 06:08N 43°42' E 007°17'0 0.0
2014-Oct-09 05:33N 43°42' E 007°17'0 0.0
2014-Oct-09 04:33N 43°42' E 007°17'0 0.0
2014-Oct-09 03:33N 43°42' E 007°17'0 0.0
2014-Oct-09 02:33N 43°42' E 007°17'0 0.0
2014-Oct-09 01:33N 43°42' E 007°17'0 0.0
2014-Oct-09 00:33N 43°42' E 007°17'0 0.0
2014-Oct-08 23:24N 43°42' E 007°17'0 0.0
2014-Oct-08 22:30N 43°42' E 007°17'0 0.0
2014-Oct-08 21:22N 43°42' E 007°17'0 0.0
2014-Oct-08 19:21N 43°42' E 007°17'0 0.0
2014-Oct-08 16:32N 43°42' E 007°17'0 0.0
2014-Oct-08 15:33N 43°42' E 007°17'0 0.0
2014-Oct-08 14:30N 43°42' E 007°17'0 0.0
2014-Oct-08 13:33N 43°42' E 007°17'0 0.0
2014-Oct-08 12:33N 43°42' E 007°17'4 4.3
2014-Oct-08 11:33N 43°41' E 007°23'7211.5
2014-Oct-08 05:17N 44°17' E 008°50'7 9.9
2014-Oct-08 04:32N 44°23' E 008°57'1 1.4
2014-Oct-08 03:33N 44°24' E 008°56'0 0.0
2014-Oct-08 02:33N 44°24' E 008°56'0 0.0
2014-Oct-08 01:33N 44°24' E 008°56'0 0.0
2014-Oct-08 00:33N 44°24' E 008°56'0 0.0
2014-Oct-07 23:33N 44°24' E 008°56'0 0.0
2014-Oct-07 22:32N 44°24' E 008°56'0 0.0
2014-Oct-07 21:33N 44°24' E 008°56'0 0.0
2014-Oct-07 20:29N 44°24' E 008°56'0 0.0
2014-Oct-07 19:33N 44°24' E 008°56'0 0.0
2014-Oct-07 18:30N 44°24' E 008°56'0 0.0
2014-Oct-07 17:31N 44°24' E 008°56'0 0.0
2014-Oct-07 16:31N 44°24' E 008°56'0 0.0
2014-Oct-07 15:34N 44°24' E 008°56'0 0.0
2014-Oct-07 14:29N 44°24' E 008°56'0 0.0
2014-Oct-07 13:27N 44°24' E 008°56'0 0.0
2014-Oct-07 12:33N 44°24' E 008°56'0 0.0
2014-Oct-07 11:33N 44°24' E 008°56'0 0.0
2014-Oct-07 10:32N 44°24' E 008°56'0 0.0
2014-Oct-07 09:23N 44°24' E 008°56'0 0.0
2014-Oct-07 08:33N 44°24' E 008°56'0 0.0
2014-Oct-07 07:33N 44°24' E 008°56'0 0.0
2014-Oct-07 06:33N 44°24' E 008°56'0 0.0
2014-Oct-07 05:34N 44°24' E 008°56'0 0.0
2014-Oct-07 04:21N 44°24' E 008°56'0 0.0
2014-Oct-07 03:31N 44°24' E 008°56'0 0.0
2014-Oct-07 02:31N 44°24' E 008°56'0 0.0
2014-Oct-07 01:32N 44°24' E 008°56'0 0.0
2014-Oct-07 00:32N 44°24' E 008°56'0 0.0
2014-Oct-06 23:33N 44°24' E 008°56'0 0.0
2014-Oct-06 22:18N 44°24' E 008°56'0 0.0
2014-Oct-06 21:26N 44°24' E 008°56'0 0.0
2014-Oct-06 20:32N 44°24' E 008°56'0 0.0
2014-Oct-06 19:30N 44°24' E 008°56'0 0.0
2014-Oct-06 18:30N 44°24' E 008°56'0 0.0
2014-Oct-06 17:33N 44°24' E 008°56'0 0.0
2014-Oct-06 16:26N 44°24' E 008°56'0 0.0
2014-Oct-06 15:33N 44°24' E 008°56'0 0.0
2014-Oct-06 14:33N 44°24' E 008°56'0 0.0
2014-Oct-06 13:24N 44°24' E 008°56'0 0.0
2014-Oct-06 12:32N 44°24' E 008°56'0 0.0
2014-Oct-06 11:31N 44°24' E 008°56'0 0.0
2014-Oct-06 10:33N 44°24' E 008°56'0 0.0
2014-Oct-06 09:31N 44°24' E 008°56'0 0.0
2014-Oct-06 08:33N 44°24' E 008°56'0 0.0
2014-Oct-06 07:33N 44°24' E 008°56'0 0.0
2014-Oct-06 06:32N 44°24' E 008°56'0 0.0
2014-Oct-06 05:33N 44°24' E 008°56'0 0.0
2014-Oct-06 04:32N 44°24' E 008°56'0 0.0
2014-Oct-06 03:32N 44°24' E 008°56'0 0.0
2014-Oct-06 02:33N 44°24' E 008°56'0 0.0
2014-Oct-06 01:32N 44°24' E 008°56'0 0.0
2014-Oct-06 00:33N 44°24' E 008°56'0 0.0
2014-Oct-05 23:32N 44°24' E 008°56'0 0.0
2014-Oct-05 22:30N 44°24' E 008°56'0 0.0
2014-Oct-05 21:28N 44°24' E 008°56'0 0.0
2014-Oct-05 20:30N 44°24' E 008°56'0 0.0
2014-Oct-05 19:32N 44°24' E 008°56'0 0.0
2014-Oct-05 18:33N 44°24' E 008°56'0 0.0
2014-Oct-05 17:28N 44°24' E 008°56'0 0.0
2014-Oct-05 16:33N 44°24' E 008°56'0 0.0
2014-Oct-05 15:26N 44°24' E 008°56'0 0.0
2014-Oct-05 14:32N 44°24' E 008°56'0 0.0
2014-Oct-05 13:28N 44°24' E 008°56'0 0.0
2014-Oct-05 12:32N 44°24' E 008°56'0 0.0
2014-Oct-05 11:32N 44°24' E 008°56'0 0.0
2014-Oct-05 10:33N 44°24' E 008°56'0 0.0
2014-Oct-05 09:31N 44°24' E 008°56'0 0.0
2014-Oct-05 08:33N 44°24' E 008°56'0 0.0
2014-Oct-05 07:28N 44°24' E 008°56'0 0.0
2014-Oct-05 06:31N 44°24' E 008°56'0 0.0
2014-Oct-05 05:33N 44°24' E 008°56'0 0.0
2014-Oct-05 04:33N 44°24' E 008°56'0 0.0
2014-Oct-05 03:33N 44°24' E 008°56'0 0.0
2014-Oct-05 02:33N 44°24' E 008°56'0 0.0
2014-Oct-05 01:33N 44°24' E 008°56'0 0.0
2014-Oct-05 00:32N 44°24' E 008°56'0 0.0
2014-Oct-04 23:33N 44°24' E 008°56'0 0.0
2014-Oct-04 22:32N 44°24' E 008°56'0 0.0
2014-Oct-04 21:33N 44°24' E 008°56'0 0.0
2014-Oct-04 20:33N 44°24' E 008°56'0 0.0
2014-Oct-04 19:33N 44°24' E 008°56'0 0.0
2014-Oct-04 18:33N 44°24' E 008°56'0 0.0
2014-Oct-04 17:33N 44°24' E 008°56'0 0.0
2014-Oct-04 16:32N 44°24' E 008°56'0 0.0
2014-Oct-04 15:33N 44°24' E 008°56'0 0.0
2014-Oct-04 14:30N 44°24' E 008°56'0 0.0
2014-Oct-04 13:33N 44°24' E 008°56'0 0.0
2014-Oct-04 12:31N 44°24' E 008°56'0 0.0
2014-Oct-04 11:33N 44°24' E 008°56'0 0.0
2014-Oct-04 10:31N 44°24' E 008°56'0 0.0
2014-Oct-04 09:32N 44°24' E 008°56'0 0.0
2014-Oct-04 08:33N 44°24' E 008°56'0 0.0
2014-Oct-04 07:27N 44°24' E 008°56'0 0.0
2014-Oct-04 06:31N 44°24' E 008°56'0 0.0
2014-Oct-04 05:29N 44°24' E 008°56'0 0.0
2014-Oct-04 04:30N 44°24' E 008°56'0 0.0
2014-Oct-04 03:33N 44°24' E 008°56'0 0.0
2014-Oct-04 02:33N 44°24' E 008°56'0 0.0
2014-Oct-04 01:32N 44°24' E 008°56'0 0.0
2014-Oct-04 00:33N 44°24' E 008°56'0 0.0
2014-Oct-03 23:33N 44°24' E 008°56'0 0.0
2014-Oct-03 22:33N 44°24' E 008°56'0 0.0
2014-Oct-03 21:32N 44°24' E 008°56'0 0.0
2014-Oct-03 20:33N 44°24' E 008°56'0 0.0
2014-Oct-03 19:33N 44°24' E 008°56'0 0.0
2014-Oct-03 18:33N 44°24' E 008°56'0 0.0
2014-Oct-03 17:32N 44°24' E 008°56'0 0.0
2014-Oct-03 16:33N 44°24' E 008°56'0 0.0
2014-Oct-03 15:33N 44°24' E 008°56'0 0.0
2014-Oct-03 14:32N 44°24' E 008°56'0 0.0
2014-Oct-03 13:22N 44°24' E 008°56'0 0.0
2014-Oct-03 12:30N 44°24' E 008°56'0 0.0
2014-Oct-03 11:33N 44°24' E 008°56'0 0.0
2014-Oct-03 10:33N 44°24' E 008°56'0 0.0
2014-Oct-03 09:30N 44°24' E 008°56'0 0.0
2014-Oct-03 08:31N 44°24' E 008°56'0 0.0
2014-Oct-03 07:33N 44°24' E 008°56'0 0.0
2014-Oct-03 06:33N 44°24' E 008°56'0 0.0
2014-Oct-03 05:27N 44°24' E 008°56'0 0.0
2014-Oct-03 04:29N 44°24' E 008°56'0 0.0
2014-Oct-03 03:30N 44°24' E 008°56'0 0.0
2014-Oct-03 02:33N 44°24' E 008°56'0 0.0
2014-Oct-03 01:32N 44°24' E 008°56'0 0.0
2014-Oct-03 00:33N 44°24' E 008°56'0 0.0
2014-Oct-02 23:33N 44°24' E 008°56'0 0.0
2014-Oct-02 22:33N 44°24' E 008°56'0 0.0
2014-Oct-02 21:17N 44°24' E 008°56'0 0.0
2014-Oct-02 20:23N 44°24' E 008°56'0 0.0
2014-Oct-02 19:32N 44°24' E 008°56'0 0.0
2014-Oct-02 18:33N 44°24' E 008°56'0 0.0
2014-Oct-02 17:32N 44°24' E 008°56'0 0.0
2014-Oct-02 16:30N 44°24' E 008°56'0 0.0
2014-Oct-02 15:33N 44°24' E 008°56'0 0.0
2014-Oct-02 14:33N 44°24' E 008°56'0 0.0
2014-Oct-02 13:32N 44°24' E 008°56'0 0.0
2014-Oct-02 12:32N 44°24' E 008°56'0 0.0
2014-Oct-02 11:32N 44°24' E 008°56'0 0.0
2014-Oct-02 10:33N 44°24' E 008°56'0 0.0
2014-Oct-02 09:23N 44°24' E 008°56'0 0.0
2014-Oct-02 08:22N 44°24' E 008°56'0 0.0
2014-Oct-02 07:33N 44°24' E 008°56'0 0.0
2014-Oct-02 06:33N 44°24' E 008°56'0 0.0
2014-Oct-02 05:26N 44°24' E 008°56'0 0.0
2014-Oct-02 04:30N 44°24' E 008°56'0 0.0
2014-Oct-02 03:33N 44°24' E 008°56'0 0.0
2014-Oct-02 02:30N 44°24' E 008°56'0 0.0
2014-Oct-02 01:33N 44°24' E 008°56'0 0.0
2014-Oct-02 00:33N 44°24' E 008°56'0 0.0
2014-Oct-01 23:33N 44°24' E 008°56'0 0.0
2014-Oct-01 22:16N 44°24' E 008°56'0 0.0
2014-Oct-01 21:32N 44°24' E 008°56'0 0.0
2014-Oct-01 20:33N 44°24' E 008°56'0 0.0
2014-Oct-01 19:32N 44°24' E 008°56'0 0.0
2014-Oct-01 18:33N 44°24' E 008°56'0 0.0
2014-Oct-01 17:31N 44°24' E 008°56'0 0.0
2014-Oct-01 16:27N 44°24' E 008°56'0 0.0
2014-Oct-01 15:33N 44°24' E 008°56'0 0.0
2014-Oct-01 14:33N 44°24' E 008°56'0 0.0
2014-Oct-01 13:19N 44°24' E 008°56'0 0.0
2014-Oct-01 12:33N 44°24' E 008°56'0 0.0
2014-Oct-01 11:33N 44°24' E 008°56'0 0.0
2014-Oct-01 10:33N 44°24' E 008°56'0 0.0
2014-Oct-01 09:33N 44°24' E 008°56'0 0.0
2014-Oct-01 08:33N 44°24' E 008°56'0 0.0
2014-Oct-01 07:32N 44°24' E 008°56'2 0.1
2014-Sep-30 17:33N 44°23' E 008°58'9 9.2
2014-Sep-30 16:33N 44°15' E 008°50'1110.9
2014-Sep-30 15:33N 44°09' E 008°37'  
Track history (hours):
 
Tides and Currents Weather Stations Pressure Air Temp Water Temp Dewpoint Dewpoint Depression Visibility Wind Speed Wind Dir Waves Ship Positions

Dionea

Last reported at 2014-Oct-10 02:32 UTC. Time now 2014-Dec-21 23:57 UTC.
Position N 44°24' E 008°56'.
Warning: this ship's position is months out of date.

Length 52 m.

Type: Pleasure craft. MMSI: 247159400.

Date/timePositionNaut miles runAvg speedWind from/ knotsBaromVisibWave heightAir tempDewpointWater temp
2014-Oct-10 02:32N 44°24' E 008°56'5 5.5
2014-Oct-10 01:33N 44°18' E 008°55'10 9.4
2014-Oct-10 00:33N 44°13' E 008°44'10 9.1
2014-Oct-09 23:25N 44°07' E 008°33'58 9.7
2014-Oct-09 17:26N 43°41' E 007°21'3 3.2
2014-Oct-09 16:33N 43°42' E 007°17'0 0.0
2014-Oct-09 15:33N 43°42' E 007°17'0 0.0
2014-Oct-09 14:33N 43°42' E 007°17'0 0.0
2014-Oct-09 13:33N 43°42' E 007°17'0 0.0
2014-Oct-09 12:33N 43°42' E 007°17'0 0.0
2014-Oct-09 11:33N 43°42' E 007°17'0 0.0
2014-Oct-09 10:33N 43°42' E 007°17'0 0.0
2014-Oct-09 08:30N 43°42' E 007°17'0 0.0
2014-Oct-09 07:33N 43°42' E 007°17'0 0.0
2014-Oct-09 06:08N 43°42' E 007°17'0 0.0
2014-Oct-09 05:33N 43°42' E 007°17'0 0.0
2014-Oct-09 04:33N 43°42' E 007°17'0 0.0
2014-Oct-09 03:33N 43°42' E 007°17'0 0.0
2014-Oct-09 02:33N 43°42' E 007°17'0 0.0
2014-Oct-09 01:33N 43°42' E 007°17'0 0.0
2014-Oct-09 00:33N 43°42' E 007°17'0 0.0
2014-Oct-08 23:24N 43°42' E 007°17'0 0.0
2014-Oct-08 22:30N 43°42' E 007°17'0 0.0
2014-Oct-08 21:22N 43°42' E 007°17'0 0.0
2014-Oct-08 19:21N 43°42' E 007°17'0 0.0
2014-Oct-08 16:32N 43°42' E 007°17'0 0.0
2014-Oct-08 15:33N 43°42' E 007°17'0 0.0
2014-Oct-08 14:30N 43°42' E 007°17'0 0.0
2014-Oct-08 13:33N 43°42' E 007°17'0 0.0
2014-Oct-08 12:33N 43°42' E 007°17'4 4.3
2014-Oct-08 11:33N 43°41' E 007°23'7211.5
2014-Oct-08 05:17N 44°17' E 008°50'7 9.9
2014-Oct-08 04:32N 44°23' E 008°57'1 1.4
2014-Oct-08 03:33N 44°24' E 008°56'0 0.0
2014-Oct-08 02:33N 44°24' E 008°56'0 0.0
2014-Oct-08 01:33N 44°24' E 008°56'0 0.0
2014-Oct-08 00:33N 44°24' E 008°56'0 0.0
2014-Oct-07 23:33N 44°24' E 008°56'0 0.0
2014-Oct-07 22:32N 44°24' E 008°56'0 0.0
2014-Oct-07 21:33N 44°24' E 008°56'0 0.0
2014-Oct-07 20:29N 44°24' E 008°56'0 0.0
2014-Oct-07 19:33N 44°24' E 008°56'0 0.0
2014-Oct-07 18:30N 44°24' E 008°56'0 0.0
2014-Oct-07 17:31N 44°24' E 008°56'0 0.0
2014-Oct-07 16:31N 44°24' E 008°56'0 0.0
2014-Oct-07 15:34N 44°24' E 008°56'0 0.0
2014-Oct-07 14:29N 44°24' E 008°56'0 0.0
2014-Oct-07 13:27N 44°24' E 008°56'0 0.0
2014-Oct-07 12:33N 44°24' E 008°56'0 0.0
2014-Oct-07 11:33N 44°24' E 008°56'0 0.0
2014-Oct-07 10:32N 44°24' E 008°56'0 0.0
2014-Oct-07 09:23N 44°24' E 008°56'0 0.0
2014-Oct-07 08:33N 44°24' E 008°56'0 0.0
2014-Oct-07 07:33N 44°24' E 008°56'0 0.0
2014-Oct-07 06:33N 44°24' E 008°56'0 0.0
2014-Oct-07 05:34N 44°24' E 008°56'0 0.0
2014-Oct-07 04:21N 44°24' E 008°56'0 0.0
2014-Oct-07 03:31N 44°24' E 008°56'0 0.0
2014-Oct-07 02:31N 44°24' E 008°56'0 0.0
2014-Oct-07 01:32N 44°24' E 008°56'0 0.0
2014-Oct-07 00:32N 44°24' E 008°56'0 0.0
2014-Oct-06 23:33N 44°24' E 008°56'0 0.0
2014-Oct-06 22:18N 44°24' E 008°56'0 0.0
2014-Oct-06 21:26N 44°24' E 008°56'0 0.0
2014-Oct-06 20:32N 44°24' E 008°56'0 0.0
2014-Oct-06 19:30N 44°24' E 008°56'0 0.0
2014-Oct-06 18:30N 44°24' E 008°56'0 0.0
2014-Oct-06 17:33N 44°24' E 008°56'0 0.0
2014-Oct-06 16:26N 44°24' E 008°56'0 0.0
2014-Oct-06 15:33N 44°24' E 008°56'0 0.0
2014-Oct-06 14:33N 44°24' E 008°56'0 0.0
2014-Oct-06 13:24N 44°24' E 008°56'0 0.0
2014-Oct-06 12:32N 44°24' E 008°56'0 0.0
2014-Oct-06 11:31N 44°24' E 008°56'0 0.0
2014-Oct-06 10:33N 44°24' E 008°56'0 0.0
2014-Oct-06 09:31N 44°24' E 008°56'0 0.0
2014-Oct-06 08:33N 44°24' E 008°56'0 0.0
2014-Oct-06 07:33N 44°24' E 008°56'0 0.0
2014-Oct-06 06:32N 44°24' E 008°56'0 0.0
2014-Oct-06 05:33N 44°24' E 008°56'0 0.0
2014-Oct-06 04:32N 44°24' E 008°56'0 0.0
2014-Oct-06 03:32N 44°24' E 008°56'0 0.0
2014-Oct-06 02:33N 44°24' E 008°56'0 0.0
2014-Oct-06 01:32N 44°24' E 008°56'0 0.0
2014-Oct-06 00:33N 44°24' E 008°56'0 0.0
2014-Oct-05 23:32N 44°24' E 008°56'0 0.0
2014-Oct-05 22:30N 44°24' E 008°56'0 0.0
2014-Oct-05 21:28N 44°24' E 008°56'0 0.0
2014-Oct-05 20:30N 44°24' E 008°56'0 0.0
2014-Oct-05 19:32N 44°24' E 008°56'0 0.0
2014-Oct-05 18:33N 44°24' E 008°56'0 0.0
2014-Oct-05 17:28N 44°24' E 008°56'0 0.0
2014-Oct-05 16:33N 44°24' E 008°56'0 0.0
2014-Oct-05 15:26N 44°24' E 008°56'0 0.0
2014-Oct-05 14:32N 44°24' E 008°56'0 0.0
2014-Oct-05 13:28N 44°24' E 008°56'0 0.0
2014-Oct-05 12:32N 44°24' E 008°56'0 0.0
2014-Oct-05 11:32N 44°24' E 008°56'0 0.0
2014-Oct-05 10:33N 44°24' E 008°56'0 0.0
2014-Oct-05 09:31N 44°24' E 008°56'0 0.0
2014-Oct-05 08:33N 44°24' E 008°56'0 0.0
2014-Oct-05 07:28N 44°24' E 008°56'0 0.0
2014-Oct-05 06:31N 44°24' E 008°56'0 0.0
2014-Oct-05 05:33N 44°24' E 008°56'0 0.0
2014-Oct-05 04:33N 44°24' E 008°56'0 0.0
2014-Oct-05 03:33N 44°24' E 008°56'0 0.0
2014-Oct-05 02:33N 44°24' E 008°56'0 0.0
2014-Oct-05 01:33N 44°24' E 008°56'0 0.0
2014-Oct-05 00:32N 44°24' E 008°56'0 0.0
2014-Oct-04 23:33N 44°24' E 008°56'0 0.0
2014-Oct-04 22:32N 44°24' E 008°56'0 0.0
2014-Oct-04 21:33N 44°24' E 008°56'0 0.0
2014-Oct-04 20:33N 44°24' E 008°56'0 0.0
2014-Oct-04 19:33N 44°24' E 008°56'0 0.0
2014-Oct-04 18:33N 44°24' E 008°56'0 0.0
2014-Oct-04 17:33N 44°24' E 008°56'0 0.0
2014-Oct-04 16:32N 44°24' E 008°56'0 0.0
2014-Oct-04 15:33N 44°24' E 008°56'0 0.0
2014-Oct-04 14:30N 44°24' E 008°56'0 0.0
2014-Oct-04 13:33N 44°24' E 008°56'0 0.0
2014-Oct-04 12:31N 44°24' E 008°56'0 0.0
2014-Oct-04 11:33N 44°24' E 008°56'0 0.0
2014-Oct-04 10:31N 44°24' E 008°56'0 0.0
2014-Oct-04 09:32N 44°24' E 008°56'0 0.0
2014-Oct-04 08:33N 44°24' E 008°56'0 0.0
2014-Oct-04 07:27N 44°24' E 008°56'0 0.0
2014-Oct-04 06:31N 44°24' E 008°56'0 0.0
2014-Oct-04 05:29N 44°24' E 008°56'0 0.0
2014-Oct-04 04:30N 44°24' E 008°56'0 0.0
2014-Oct-04 03:33N 44°24' E 008°56'0 0.0
2014-Oct-04 02:33N 44°24' E 008°56'0 0.0
2014-Oct-04 01:32N 44°24' E 008°56'0 0.0
2014-Oct-04 00:33N 44°24' E 008°56'0 0.0
2014-Oct-03 23:33N 44°24' E 008°56'0 0.0
2014-Oct-03 22:33N 44°24' E 008°56'0 0.0
2014-Oct-03 21:32N 44°24' E 008°56'0 0.0
2014-Oct-03 20:33N 44°24' E 008°56'0 0.0
2014-Oct-03 19:33N 44°24' E 008°56'0 0.0
2014-Oct-03 18:33N 44°24' E 008°56'0 0.0
2014-Oct-03 17:32N 44°24' E 008°56'0 0.0
2014-Oct-03 16:33N 44°24' E 008°56'0 0.0
2014-Oct-03 15:33N 44°24' E 008°56'0 0.0
2014-Oct-03 14:32N 44°24' E 008°56'0 0.0
2014-Oct-03 13:22N 44°24' E 008°56'0 0.0
2014-Oct-03 12:30N 44°24' E 008°56'0 0.0
2014-Oct-03 11:33N 44°24' E 008°56'0 0.0
2014-Oct-03 10:33N 44°24' E 008°56'0 0.0
2014-Oct-03 09:30N 44°24' E 008°56'0 0.0
2014-Oct-03 08:31N 44°24' E 008°56'0 0.0
2014-Oct-03 07:33N 44°24' E 008°56'0 0.0
2014-Oct-03 06:33N 44°24' E 008°56'0 0.0
2014-Oct-03 05:27N 44°24' E 008°56'0 0.0
2014-Oct-03 04:29N 44°24' E 008°56'0 0.0
2014-Oct-03 03:30N 44°24' E 008°56'0 0.0
2014-Oct-03 02:33N 44°24' E 008°56'0 0.0
2014-Oct-03 01:32N 44°24' E 008°56'0 0.0
2014-Oct-03 00:33N 44°24' E 008°56'0 0.0
2014-Oct-02 23:33N 44°24' E 008°56'0 0.0
2014-Oct-02 22:33N 44°24' E 008°56'0 0.0
2014-Oct-02 21:17N 44°24' E 008°56'0 0.0
2014-Oct-02 20:23N 44°24' E 008°56'0 0.0
2014-Oct-02 19:32N 44°24' E 008°56'0 0.0
2014-Oct-02 18:33N 44°24' E 008°56'0 0.0
2014-Oct-02 17:32N 44°24' E 008°56'0 0.0
2014-Oct-02 16:30N 44°24' E 008°56'0 0.0
2014-Oct-02 15:33N 44°24' E 008°56'0 0.0
2014-Oct-02 14:33N 44°24' E 008°56'0 0.0
2014-Oct-02 13:32N 44°24' E 008°56'0 0.0
2014-Oct-02 12:32N 44°24' E 008°56'0 0.0
2014-Oct-02 11:32N 44°24' E 008°56'0 0.0
2014-Oct-02 10:33N 44°24' E 008°56'0 0.0
2014-Oct-02 09:23N 44°24' E 008°56'0 0.0
2014-Oct-02 08:22N 44°24' E 008°56'0 0.0
2014-Oct-02 07:33N 44°24' E 008°56'0 0.0
2014-Oct-02 06:33N 44°24' E 008°56'0 0.0
2014-Oct-02 05:26N 44°24' E 008°56'0 0.0
2014-Oct-02 04:30N 44°24' E 008°56'0 0.0
2014-Oct-02 03:33N 44°24' E 008°56'0 0.0
2014-Oct-02 02:30N 44°24' E 008°56'0 0.0
2014-Oct-02 01:33N 44°24' E 008°56'0 0.0
2014-Oct-02 00:33N 44°24' E 008°56'0 0.0
2014-Oct-01 23:33N 44°24' E 008°56'0 0.0
2014-Oct-01 22:16N 44°24' E 008°56'0 0.0
2014-Oct-01 21:32N 44°24' E 008°56'0 0.0
2014-Oct-01 20:33N 44°24' E 008°56'0 0.0
2014-Oct-01 19:32N 44°24' E 008°56'0 0.0
2014-Oct-01 18:33N 44°24' E 008°56'0 0.0
2014-Oct-01 17:31N 44°24' E 008°56'0 0.0
2014-Oct-01 16:27N 44°24' E 008°56'0 0.0
2014-Oct-01 15:33N 44°24' E 008°56'0 0.0
2014-Oct-01 14:33N 44°24' E 008°56'0 0.0
2014-Oct-01 13:19N 44°24' E 008°56'0 0.0
2014-Oct-01 12:33N 44°24' E 008°56'0 0.0
2014-Oct-01 11:33N 44°24' E 008°56'0 0.0
2014-Oct-01 10:33N 44°24' E 008°56'0 0.0
2014-Oct-01 09:33N 44°24' E 008°56'0 0.0
2014-Oct-01 08:33N 44°24' E 008°56'0 0.0
2014-Oct-01 07:32N 44°24' E 008°56'2 0.1
2014-Sep-30 17:33N 44°23' E 008°58'9 9.2
2014-Sep-30 16:33N 44°15' E 008°50'1110.9
2014-Sep-30 15:33N 44°09' E 008°37'  

Dump ship's entire track history